createdAt,value
2019-06-26T00:00:52.398Z,1022.5
2019-06-26T00:01:52.455Z,1022.5
2019-06-26T00:02:52.423Z,1022.4
2019-06-26T00:03:52.484Z,1022.5
2019-06-26T00:04:52.490Z,1022.5
2019-06-26T00:05:52.688Z,1022.4
2019-06-26T00:06:52.547Z,1022.5
2019-06-26T00:07:52.589Z,1022.5
2019-06-26T00:08:52.605Z,1022.5
2019-06-26T00:09:52.630Z,1022.5
2019-06-26T00:10:52.680Z,1022.5
2019-06-26T00:11:52.682Z,1022.5
2019-06-26T00:12:52.696Z,1022.5
2019-06-26T00:13:52.773Z,1022.5
2019-06-26T00:14:52.743Z,1022.5
2019-06-26T00:15:52.763Z,1022.5
2019-06-26T00:16:52.780Z,1022.5
2019-06-26T00:17:52.818Z,1022.5
2019-06-26T00:18:52.858Z,1022.5
2019-06-26T00:19:52.845Z,1022.5
2019-06-26T00:20:52.866Z,1022.5
2019-06-26T00:21:52.883Z,1022.5
2019-06-26T00:22:52.915Z,1022.5
2019-06-26T00:23:52.909Z,1022.5
2019-06-26T00:24:52.957Z,1022.4
2019-06-26T00:25:52.928Z,1022.4
2019-06-26T00:26:52.963Z,1022.4
2019-06-26T00:27:52.950Z,1022.5
2019-06-26T00:28:52.970Z,1022.4
2019-06-26T00:29:53.013Z,1022.4
2019-06-26T00:30:53.007Z,1022.4
2019-06-26T00:31:53.004Z,1022.4
2019-06-26T00:32:53.051Z,1022.5
2019-06-26T00:33:53.053Z,1022.5
2019-06-26T00:34:53.048Z,1022.4
2019-06-26T00:35:53.084Z,1022.5
2019-06-26T00:36:53.090Z,1022.5
2019-06-26T00:37:53.090Z,1022.4
2019-06-26T00:38:53.120Z,1022.4
2019-06-26T00:39:53.106Z,1022.4
2019-06-26T00:40:53.129Z,1022.5
2019-06-26T00:41:53.208Z,1022.5
2019-06-26T00:42:53.164Z,1022.5
2019-06-26T00:43:53.157Z,1022.5
2019-06-26T00:44:53.191Z,1022.5
2019-06-26T00:45:53.197Z,1022.5
2019-06-26T00:46:53.206Z,1022.5
2019-06-26T00:47:53.254Z,1022.5
2019-06-26T00:48:53.237Z,1022.5
2019-06-26T00:49:53.199Z,1022.5
2019-06-26T00:50:53.195Z,1022.5
2019-06-26T00:51:53.245Z,1022.6
2019-06-26T00:52:53.215Z,1022.4
2019-06-26T00:53:53.217Z,1022.4
2019-06-26T00:54:53.336Z,1022.5
2019-06-26T00:55:55.211Z,1022.5
2019-06-26T00:56:53.237Z,1022.4
2019-06-26T00:57:53.310Z,1022.5
2019-06-26T00:58:53.355Z,1022.4
2019-06-26T00:59:53.461Z,1022.4
2019-06-26T01:00:53.480Z,1022.4
2019-06-26T01:01:53.537Z,1022.4
2019-06-26T01:02:53.577Z,1022.4
2019-06-26T01:03:53.644Z,1022.4
2019-06-26T01:04:53.677Z,1022.4
2019-06-26T01:05:53.764Z,1022.4
2019-06-26T01:06:53.774Z,1022.4
2019-06-26T01:07:53.849Z,1022.4
2019-06-26T01:08:53.888Z,1022.5
2019-06-26T01:09:53.939Z,1022.4
2019-06-26T01:10:53.984Z,1022.5
2019-06-26T01:11:54.063Z,1022.4
2019-06-26T01:12:54.084Z,1022.4
2019-06-26T01:13:57.893Z,1022.4
2019-06-26T01:14:54.204Z,1022.4
2019-06-26T01:15:54.245Z,1022.4
2019-06-26T01:16:54.336Z,1022.3
2019-06-26T01:17:55.370Z,1022.4
2019-06-26T01:18:54.371Z,1022.4
2019-06-26T01:19:54.460Z,1022.3
2019-06-26T01:20:54.477Z,1022.4
2019-06-26T01:21:54.459Z,1022.4
2019-06-26T01:22:54.462Z,1022.4
2019-06-26T01:23:54.503Z,1022.4
2019-06-26T01:24:54.578Z,1022.4
2019-06-26T01:25:54.580Z,1022.5
2019-06-26T01:26:54.619Z,1022.4
2019-06-26T01:27:54.706Z,1022.4
2019-06-26T01:28:54.730Z,1022.4
2019-06-26T01:29:54.772Z,1022.3
2019-06-26T01:30:54.794Z,1022.3
2019-06-26T01:31:54.831Z,1022.3
2019-06-26T01:32:54.913Z,1022.4
2019-06-26T01:33:54.912Z,1022.3
2019-06-26T01:34:54.933Z,1022.3
2019-06-26T01:35:54.974Z,1022.4
2019-06-26T01:36:55.010Z,1022.4
2019-06-26T01:37:55.052Z,1022.4
2019-06-26T01:38:55.084Z,1022.4
2019-06-26T01:39:55.177Z,1022.4
2019-06-26T01:40:55.166Z,1022.4
2019-06-26T01:41:55.191Z,1022.4
2019-06-26T01:42:55.227Z,1022.5
2019-06-26T01:43:55.278Z,1022.4
2019-06-26T01:44:55.307Z,1022.4
2019-06-26T01:45:55.320Z,1022.4
2019-06-26T01:46:57.815Z,1022.5
2019-06-26T01:47:55.381Z,1022.4
2019-06-26T01:48:55.426Z,1022.4
2019-06-26T01:49:55.469Z,1022.4
2019-06-26T01:50:55.517Z,1022.4
2019-06-26T01:51:55.526Z,1022.4
2019-06-26T01:52:55.581Z,1022.3
2019-06-26T01:53:55.579Z,1022.3
2019-06-26T01:54:55.617Z,1022.4
2019-06-26T01:55:55.686Z,1022.3
2019-06-26T01:56:55.737Z,1022.3
2019-06-26T01:57:55.700Z,1022.4
2019-06-26T01:58:55.968Z,1022.4
2019-06-26T01:59:55.884Z,1022.3
2019-06-26T02:00:55.858Z,1022.3
2019-06-26T02:01:55.881Z,1022.3
2019-06-26T02:02:55.895Z,1022.3
2019-06-26T02:03:55.940Z,1022.3
2019-06-26T02:04:55.991Z,1022.2
2019-06-26T02:05:56.038Z,1022.4
2019-06-26T02:06:56.021Z,1022.4
2019-06-26T02:07:56.069Z,1022.4
2019-06-26T02:08:56.091Z,1022.3
2019-06-26T02:09:56.071Z,1022.3
2019-06-26T02:10:56.112Z,1022.3
2019-06-26T02:11:56.172Z,1022.2
2019-06-26T02:12:56.207Z,1022.3
2019-06-26T02:13:56.196Z,1022.2
2019-06-26T02:14:56.223Z,1022.3
2019-06-26T02:15:56.237Z,1022.3
2019-06-26T02:16:56.274Z,1022.2
2019-06-26T02:17:56.291Z,1022.3
2019-06-26T02:18:56.323Z,1022.3
2019-06-26T02:19:56.318Z,1022.3
2019-06-26T02:20:56.339Z,1022.3
2019-06-26T02:21:56.363Z,1022.2
2019-06-26T02:22:56.411Z,1022.2
2019-06-26T02:23:56.406Z,1022.2
2019-06-26T02:24:56.438Z,1022.2
2019-06-26T02:25:56.439Z,1022.2
2019-06-26T02:26:56.451Z,1022.2
2019-06-26T02:27:56.494Z,1022.2
2019-06-26T02:28:56.507Z,1022.2
2019-06-26T02:29:56.510Z,1022.1
2019-06-26T02:30:56.525Z,1022.2
2019-06-26T02:31:56.533Z,1022.2
2019-06-26T02:32:56.594Z,1022.2
2019-06-26T02:33:56.565Z,1022.2
2019-06-26T02:34:56.583Z,1022.2
2019-06-26T02:35:56.623Z,1022.2
2019-06-26T02:36:56.589Z,1022.2
2019-06-26T02:37:56.635Z,1022.2
2019-06-26T02:38:56.608Z,1022.1
2019-06-26T02:39:56.752Z,1022.1
2019-06-26T02:40:56.616Z,1022.1
2019-06-26T02:41:56.668Z,1022.2
2019-06-26T02:42:56.635Z,1022.1
2019-06-26T02:43:56.641Z,1022.1
2019-06-26T02:44:56.658Z,1022.1
2019-06-26T02:45:56.638Z,1022.1
2019-06-26T02:47:13.571Z,1022.1
2019-06-26T02:47:56.737Z,1022.1
2019-06-26T02:48:56.629Z,1022.2
2019-06-26T02:49:56.743Z,1022.1
2019-06-26T02:50:56.804Z,1022.1
2019-06-26T02:51:56.782Z,1022.1
2019-06-26T02:52:56.844Z,1022.1
2019-06-26T02:53:56.928Z,1022.2
2019-06-26T02:54:56.975Z,1022.1
2019-06-26T02:55:57.071Z,1022.1
2019-06-26T02:56:57.097Z,1022.1
2019-06-26T02:57:57.144Z,1022.1
2019-06-26T02:58:57.150Z,1022.1
2019-06-26T02:59:57.184Z,1022.1
2019-06-26T03:00:57.292Z,1022.1
2019-06-26T03:01:57.295Z,1022.1
2019-06-26T03:02:57.293Z,1022
2019-06-26T03:03:57.353Z,1022
2019-06-26T03:04:57.394Z,1022.1
2019-06-26T03:05:57.491Z,1022
2019-06-26T03:06:57.466Z,1022
2019-06-26T03:07:57.536Z,1022
2019-06-26T03:08:57.592Z,1022.1
2019-06-26T03:09:57.695Z,1022.1
2019-06-26T03:10:57.611Z,1022.1
2019-06-26T03:11:57.620Z,1022.1
2019-06-26T03:12:57.685Z,1022
2019-06-26T03:13:57.748Z,1022
2019-06-26T03:15:08.041Z,1022.1
2019-06-26T03:15:57.823Z,1022
2019-06-26T03:16:57.867Z,1022.1
2019-06-26T03:17:57.915Z,1022.1
2019-06-26T03:18:58.359Z,1022
2019-06-26T03:19:58.052Z,1022
2019-06-26T03:20:58.047Z,1022.1
2019-06-26T03:21:58.068Z,1022.1
2019-06-26T03:22:58.149Z,1022.1
2019-06-26T03:23:58.139Z,1022.1
2019-06-26T03:24:58.210Z,1022.1
2019-06-26T03:25:58.246Z,1022
2019-06-26T03:26:58.270Z,1022
2019-06-26T03:27:58.310Z,1022.1
2019-06-26T03:28:58.376Z,1022.1
2019-06-26T03:29:58.462Z,1022.1
2019-06-26T03:30:58.420Z,1022.1
2019-06-26T03:31:58.435Z,1022
2019-06-26T03:32:58.527Z,1022.1
2019-06-26T03:33:58.550Z,1022.1
2019-06-26T03:34:58.584Z,1022.1
2019-06-26T03:35:58.603Z,1022.1
2019-06-26T03:36:58.624Z,1022.1
2019-06-26T03:37:58.641Z,1022.1
2019-06-26T03:38:58.695Z,1022
2019-06-26T03:39:58.718Z,1022
2019-06-26T03:40:58.730Z,1022.1
2019-06-26T03:41:58.767Z,1022
2019-06-26T03:42:58.875Z,1022
2019-06-26T03:43:58.894Z,1022
2019-06-26T03:44:58.968Z,1021.9
2019-06-26T03:45:58.976Z,1022.1
2019-06-26T03:46:58.987Z,1022
2019-06-26T03:47:58.997Z,1022
2019-06-26T03:48:59.047Z,1022.1
2019-06-26T03:50:00.251Z,1022
2019-06-26T03:50:59.154Z,1022
2019-06-26T03:51:59.156Z,1022.1
2019-06-26T03:52:59.201Z,1022
2019-06-26T03:53:59.175Z,1022.1
2019-06-26T03:54:59.211Z,1022.1
2019-06-26T03:55:59.297Z,1022
2019-06-26T03:56:59.278Z,1022
2019-06-26T03:57:59.296Z,1022
2019-06-26T03:58:59.314Z,1022.1
2019-06-26T03:59:59.347Z,1022
2019-06-26T04:00:59.428Z,1022
2019-06-26T04:01:59.416Z,1022
2019-06-26T04:02:59.472Z,1022
2019-06-26T04:03:59.525Z,1022.1
2019-06-26T04:04:59.544Z,1022
2019-06-26T04:05:59.591Z,1022
2019-06-26T04:06:59.567Z,1022
2019-06-26T04:07:59.616Z,1022
2019-06-26T04:08:59.642Z,1022
2019-06-26T04:09:59.628Z,1022
2019-06-26T04:10:59.657Z,1022
2019-06-26T04:11:59.722Z,1022
2019-06-26T04:12:59.734Z,1022.1
2019-06-26T04:13:59.747Z,1022
2019-06-26T04:14:59.796Z,1022
2019-06-26T04:15:59.807Z,1022
2019-06-26T04:16:59.812Z,1022
2019-06-26T04:17:59.831Z,1022
2019-06-26T04:18:59.857Z,1022
2019-06-26T04:19:59.876Z,1022
2019-06-26T04:20:59.894Z,1022
2019-06-26T04:21:59.936Z,1022
2019-06-26T04:22:59.986Z,1021.9
2019-06-26T04:23:59.962Z,1022
2019-06-26T04:24:59.993Z,1022.1
2019-06-26T04:26:00.020Z,1022
2019-06-26T04:27:00.083Z,1022
2019-06-26T04:28:00.087Z,1021.9
2019-06-26T04:29:00.089Z,1022.1
2019-06-26T04:30:00.117Z,1022.1
2019-06-26T04:31:00.143Z,1022
2019-06-26T04:32:00.159Z,1022.1
2019-06-26T04:33:00.168Z,1022.1
2019-06-26T04:34:03.321Z,1022.1
2019-06-26T04:35:00.173Z,1022
2019-06-26T04:36:00.238Z,1022
2019-06-26T04:37:00.190Z,1022.1
2019-06-26T04:38:00.226Z,1022.1
2019-06-26T04:39:00.232Z,1022.1
2019-06-26T04:40:00.224Z,1022
2019-06-26T04:41:00.232Z,1022.1
2019-06-26T04:42:00.255Z,1022
2019-06-26T04:43:00.295Z,1022.1
2019-06-26T04:44:00.297Z,1022.1
2019-06-26T04:45:00.271Z,1022.1
2019-06-26T04:46:00.286Z,1022.1
2019-06-26T04:47:00.284Z,1022.1
2019-06-26T04:48:00.378Z,1022.1
2019-06-26T04:49:00.290Z,1022.1
2019-06-26T04:50:00.306Z,1022
2019-06-26T04:51:00.310Z,1022
2019-06-26T04:52:00.313Z,1022
2019-06-26T04:53:00.346Z,1022
2019-06-26T04:54:00.372Z,1022
2019-06-26T04:55:00.371Z,1021.9
2019-06-26T04:56:00.334Z,1022
2019-06-26T04:57:00.336Z,1022
2019-06-26T04:58:00.348Z,1022
2019-06-26T04:59:00.406Z,1022
2019-06-26T05:00:00.476Z,1022
2019-06-26T05:01:00.525Z,1022
2019-06-26T05:02:00.578Z,1022
2019-06-26T05:03:00.678Z,1022
2019-06-26T05:04:00.720Z,1022
2019-06-26T05:05:00.824Z,1022
2019-06-26T05:06:00.775Z,1022
2019-06-26T05:07:00.835Z,1022
2019-06-26T05:08:00.998Z,1022
2019-06-26T05:09:00.933Z,1022
2019-06-26T05:10:01.126Z,1022
2019-06-26T05:11:01.041Z,1022.1
2019-06-26T05:12:01.175Z,1021.9
2019-06-26T05:13:01.114Z,1022
2019-06-26T05:14:01.335Z,1022.1
2019-06-26T05:15:01.229Z,1022
2019-06-26T05:16:14.074Z,1022
2019-06-26T05:17:01.334Z,1022
2019-06-26T05:18:01.307Z,1022
2019-06-26T05:19:01.317Z,1022
2019-06-26T05:20:01.431Z,1022
2019-06-26T05:21:01.401Z,1022
2019-06-26T05:22:01.466Z,1022
2019-06-26T05:23:01.511Z,1022
2019-06-26T05:24:01.559Z,1022
2019-06-26T05:25:01.597Z,1022
2019-06-26T05:26:01.669Z,1022
2019-06-26T05:27:01.722Z,1022
2019-06-26T05:28:01.819Z,1022
2019-06-26T05:29:01.769Z,1022
2019-06-26T05:30:01.795Z,1022.1
2019-06-26T05:31:01.851Z,1022
2019-06-26T05:32:01.889Z,1022
2019-06-26T05:33:01.945Z,1022
2019-06-26T05:34:02.074Z,1022
2019-06-26T05:35:02.041Z,1022
2019-06-26T05:36:02.252Z,1022.1
2019-06-26T05:37:02.088Z,1022
2019-06-26T05:38:02.171Z,1022
2019-06-26T05:39:02.187Z,1022
2019-06-26T05:40:02.247Z,1022
2019-06-26T05:41:02.627Z,1022.1
2019-06-26T05:42:02.364Z,1022.1
2019-06-26T05:43:02.291Z,1022
2019-06-26T05:44:02.402Z,1022.1
2019-06-26T05:45:02.942Z,1022.1
2019-06-26T05:46:03.448Z,1022.1
2019-06-26T05:47:02.451Z,1022.2
2019-06-26T05:48:02.592Z,1022.1
2019-06-26T05:49:02.530Z,1022.1
2019-06-26T05:50:02.671Z,1022.1
2019-06-26T05:51:02.611Z,1022
2019-06-26T05:52:02.624Z,1022.1
2019-06-26T05:53:02.679Z,1022.1
2019-06-26T05:54:02.760Z,1022.1
2019-06-26T05:55:02.805Z,1022
2019-06-26T05:56:02.807Z,1022.1
2019-06-26T05:57:02.854Z,1022.1
2019-06-26T05:58:03.156Z,1022.1
2019-06-26T05:59:02.900Z,1022.1
2019-06-26T06:00:02.935Z,1022
2019-06-26T06:01:03.111Z,1022.1
2019-06-26T06:02:03.083Z,1022.1
2019-06-26T06:03:02.994Z,1022.2
2019-06-26T06:04:03.030Z,1022.2
2019-06-26T06:05:03.055Z,1022.2
2019-06-26T06:06:03.080Z,1022.1
2019-06-26T06:07:03.123Z,1022.1
2019-06-26T06:08:03.127Z,1022.1
2019-06-26T06:09:03.148Z,1022.1
2019-06-26T06:10:03.259Z,1022.1
2019-06-26T06:11:03.225Z,1022.1
2019-06-26T06:12:03.216Z,1022.1
2019-06-26T06:13:03.265Z,1022.1
2019-06-26T06:14:03.363Z,1022.1
2019-06-26T06:15:03.310Z,1022
2019-06-26T06:16:06.323Z,1022
2019-06-26T06:17:03.331Z,1022.1
2019-06-26T06:18:03.490Z,1022.1
2019-06-26T06:19:03.402Z,1022.1
2019-06-26T06:20:03.388Z,1022
2019-06-26T06:21:03.429Z,1022
2019-06-26T06:22:04.516Z,1022
2019-06-26T06:23:03.497Z,1022
2019-06-26T06:24:03.512Z,1021.9
2019-06-26T06:25:03.538Z,1022
2019-06-26T06:26:03.538Z,1021.9
2019-06-26T06:27:03.560Z,1021.9
2019-06-26T06:28:03.626Z,1021.9
2019-06-26T06:29:03.616Z,1021.9
2019-06-26T06:30:03.727Z,1021.9
2019-06-26T06:31:03.617Z,1021.8
2019-06-26T06:32:03.639Z,1021.7
2019-06-26T06:33:03.668Z,1021.8
2019-06-26T06:34:03.718Z,1021.7
2019-06-26T06:35:03.868Z,1021.7
2019-06-26T06:36:03.734Z,1021.7
2019-06-26T06:37:03.732Z,1021.7
2019-06-26T06:38:03.760Z,1021.7
2019-06-26T06:39:03.763Z,1021.7
2019-06-26T06:40:03.810Z,1021.7
2019-06-26T06:41:03.788Z,1021.7
2019-06-26T06:42:03.799Z,1021.7
2019-06-26T06:43:03.830Z,1021.7
2019-06-26T06:44:03.879Z,1021.7
2019-06-26T06:45:03.876Z,1021.7
2019-06-26T06:46:03.837Z,1021.7
2019-06-26T06:47:04.912Z,1021.7
2019-06-26T06:48:03.927Z,1021.7
2019-06-26T06:49:03.922Z,1021.7
2019-06-26T06:50:03.904Z,1021.6
2019-06-26T06:51:03.989Z,1021.7
2019-06-26T06:52:03.865Z,1021.6
2019-06-26T06:53:03.911Z,1021.6
2019-06-26T06:54:03.872Z,1021.6
2019-06-26T06:55:03.965Z,1021.6
2019-06-26T06:56:04.006Z,1021.6
2019-06-26T06:57:04.019Z,1021.6
2019-06-26T06:58:06.564Z,1021.6
2019-06-26T06:59:04.128Z,1021.5
2019-06-26T07:00:04.245Z,1021.5
2019-06-26T07:01:04.266Z,1021.5
2019-06-26T07:02:05.289Z,1021.5
2019-06-26T07:03:04.704Z,1021.6
2019-06-26T07:04:04.981Z,1021.5
2019-06-26T07:05:04.635Z,1021.5
2019-06-26T07:06:05.868Z,1021.5
2019-06-26T07:07:05.353Z,1021.5
2019-06-26T07:08:04.654Z,1021.4
2019-06-26T07:09:04.724Z,1021.4
2019-06-26T07:10:04.802Z,1021.4
2019-06-26T07:11:04.820Z,1021.5
2019-06-26T07:12:05.008Z,1021.5
2019-06-26T07:13:04.924Z,1021.5
2019-06-26T07:14:05.044Z,1021.5
2019-06-26T07:15:05.044Z,1021.5
2019-06-26T07:16:05.103Z,1021.5
2019-06-26T07:17:19.180Z,1021.6
2019-06-26T07:18:05.228Z,1021.5
2019-06-26T07:19:05.235Z,1021.6
2019-06-26T07:20:05.238Z,1021.6
2019-06-26T07:21:05.307Z,1021.6
2019-06-26T07:22:07.307Z,1021.5
2019-06-26T07:23:05.359Z,1021.6
2019-06-26T07:24:05.433Z,1021.5
2019-06-26T07:25:05.358Z,1021.5
2019-06-26T07:26:05.452Z,1021.5
2019-06-26T07:27:05.555Z,1021.6
2019-06-26T07:28:05.793Z,1021.5
2019-06-26T07:29:05.602Z,1021.6
2019-06-26T07:30:05.642Z,1021.5
2019-06-26T07:31:05.706Z,1021.5
2019-06-26T07:32:05.770Z,1021.6
2019-06-26T07:33:05.800Z,1021.5
2019-06-26T07:34:05.952Z,1021.6
2019-06-26T07:35:05.879Z,1021.5
2019-06-26T07:36:05.910Z,1021.5
2019-06-26T07:37:06.037Z,1021.6
2019-06-26T07:38:05.990Z,1021.5
2019-06-26T07:39:06.081Z,1021.6
2019-06-26T07:40:06.106Z,1021.6
2019-06-26T07:41:06.151Z,1021.6
2019-06-26T07:42:06.180Z,1021.6
2019-06-26T07:43:06.179Z,1021.7
2019-06-26T07:44:06.175Z,1021.6
2019-06-26T07:45:06.183Z,1021.6
2019-06-26T07:46:06.237Z,1021.7
2019-06-26T07:47:21.670Z,1021.6
2019-06-26T07:48:06.340Z,1021.6
2019-06-26T07:49:06.312Z,1021.6
2019-06-26T07:50:06.484Z,1021.6
2019-06-26T07:51:06.383Z,1021.6
2019-06-26T07:52:06.421Z,1021.6
2019-06-26T07:53:06.488Z,1021.7
2019-06-26T07:54:06.479Z,1021.7
2019-06-26T07:55:06.544Z,1021.6
2019-06-26T07:56:06.540Z,1021.7
2019-06-26T07:57:06.583Z,1021.7
2019-06-26T07:58:06.624Z,1021.6
2019-06-26T07:59:06.724Z,1021.6
2019-06-26T08:00:06.831Z,1021.7
2019-06-26T08:01:06.698Z,1021.6
2019-06-26T08:02:06.741Z,1021.6
2019-06-26T08:03:06.799Z,1021.7
2019-06-26T08:04:06.856Z,1021.6
2019-06-26T08:05:06.916Z,1021.6
2019-06-26T08:06:06.935Z,1021.7
2019-06-26T08:07:06.951Z,1021.7
2019-06-26T08:08:06.975Z,1021.6
2019-06-26T08:09:07.044Z,1021.6
2019-06-26T08:10:07.080Z,1021.7
2019-06-26T08:11:07.131Z,1021.7
2019-06-26T08:12:07.178Z,1021.7
2019-06-26T08:13:07.186Z,1021.7
2019-06-26T08:14:07.174Z,1021.7
2019-06-26T08:15:07.247Z,1021.7
2019-06-26T08:16:07.226Z,1021.7
2019-06-26T08:17:07.254Z,1021.7
2019-06-26T08:18:07.278Z,1021.7
2019-06-26T08:19:07.320Z,1021.7
2019-06-26T08:20:07.299Z,1021.7
2019-06-26T08:21:12.379Z,1021.8
2019-06-26T08:22:07.348Z,1021.8
2019-06-26T08:23:07.379Z,1021.7
2019-06-26T08:24:07.514Z,1021.8
2019-06-26T08:25:07.408Z,1021.7
2019-06-26T08:26:07.444Z,1021.7
2019-06-26T08:27:07.444Z,1021.8
2019-06-26T08:28:07.567Z,1021.7
2019-06-26T08:29:07.547Z,1021.8
2019-06-26T08:30:07.526Z,1021.8
2019-06-26T08:31:07.591Z,1021.7
2019-06-26T08:32:07.539Z,1021.8
2019-06-26T08:33:07.582Z,1021.8
2019-06-26T08:34:07.609Z,1021.8
2019-06-26T08:35:07.606Z,1021.8
2019-06-26T08:36:07.633Z,1021.8
2019-06-26T08:37:07.611Z,1021.9
2019-06-26T08:38:11.238Z,1021.8
2019-06-26T08:39:07.651Z,1021.7
2019-06-26T08:40:07.685Z,1021.8
2019-06-26T08:41:07.703Z,1021.8
2019-06-26T08:42:07.687Z,1021.7
2019-06-26T08:43:07.696Z,1021.8
2019-06-26T08:44:07.683Z,1021.8
2019-06-26T08:45:07.800Z,1021.8
2019-06-26T08:46:07.723Z,1021.8
2019-06-26T08:47:07.717Z,1021.8
2019-06-26T08:48:19.202Z,1021.8
2019-06-26T08:49:21.041Z,1021.8
2019-06-26T08:50:07.722Z,1021.9
2019-06-26T08:51:07.740Z,1021.8
2019-06-26T08:52:07.777Z,1021.8
2019-06-26T08:53:07.863Z,1021.8
2019-06-26T08:54:07.882Z,1021.9
2019-06-26T08:55:07.946Z,1021.8
2019-06-26T08:56:08.010Z,1021.8
2019-06-26T08:57:07.995Z,1021.8
2019-06-26T08:58:08.127Z,1021.8
2019-06-26T08:59:08.088Z,1021.7
2019-06-26T09:00:08.223Z,1021.8
2019-06-26T09:01:08.249Z,1021.8
2019-06-26T09:02:08.231Z,1021.8
2019-06-26T09:03:08.336Z,1021.9
2019-06-26T09:04:08.311Z,1021.8
2019-06-26T09:05:08.401Z,1021.8
2019-06-26T09:06:08.398Z,1021.9
2019-06-26T09:07:08.418Z,1021.7
2019-06-26T09:08:08.894Z,1021.8
2019-06-26T09:09:08.545Z,1021.8
2019-06-26T09:10:08.628Z,1021.8
2019-06-26T09:11:08.674Z,1021.8
2019-06-26T09:12:08.681Z,1021.8
2019-06-26T09:13:08.779Z,1021.8
2019-06-26T09:14:08.828Z,1021.8
2019-06-26T09:15:08.722Z,1021.8
2019-06-26T09:16:08.841Z,1021.8
2019-06-26T09:17:08.738Z,1021.9
2019-06-26T09:18:08.814Z,1021.8
2019-06-26T09:19:08.862Z,1021.8
2019-06-26T09:20:08.896Z,1021.9
2019-06-26T09:21:08.950Z,1021.8
2019-06-26T09:22:08.957Z,1021.9
2019-06-26T09:23:11.415Z,1021.9
2019-06-26T09:24:09.142Z,1021.8
2019-06-26T09:25:21.350Z,1021.9
2019-06-26T09:26:09.184Z,1021.9
2019-06-26T09:27:09.269Z,1021.9
2019-06-26T09:28:10.371Z,1021.8
2019-06-26T09:29:09.263Z,1021.7
2019-06-26T09:30:09.339Z,1021.8
2019-06-26T09:31:09.379Z,1021.7
2019-06-26T09:32:09.401Z,1021.7
2019-06-26T09:33:09.461Z,1021.7
2019-06-26T09:34:09.466Z,1021.7
2019-06-26T09:35:09.547Z,1021.7
2019-06-26T09:36:09.595Z,1021.7
2019-06-26T09:37:09.627Z,1021.7
2019-06-26T09:38:09.733Z,1021.7
2019-06-26T09:39:09.735Z,1021.7
2019-06-26T09:40:09.771Z,1021.7
2019-06-26T09:41:09.814Z,1021.7
2019-06-26T09:42:09.834Z,1021.6
2019-06-26T09:43:09.916Z,1021.7
2019-06-26T09:44:09.918Z,1021.7
2019-06-26T09:45:09.996Z,1021.6
2019-06-26T09:46:10.205Z,1021.7
2019-06-26T09:47:10.024Z,1021.8
2019-06-26T09:48:10.067Z,1021.8
2019-06-26T09:49:10.158Z,1021.6
2019-06-26T09:50:10.166Z,1021.7
2019-06-26T09:51:10.169Z,1021.8
2019-06-26T09:52:10.160Z,1021.7
2019-06-26T09:53:10.204Z,1021.7
2019-06-26T09:54:10.225Z,1021.7
2019-06-26T09:55:10.309Z,1021.8
2019-06-26T09:56:10.278Z,1021.7
2019-06-26T09:57:10.312Z,1021.7
2019-06-26T09:58:13.088Z,1021.6
2019-06-26T09:59:10.332Z,1021.7
2019-06-26T10:00:10.399Z,1021.7
2019-06-26T10:01:10.397Z,1021.6
2019-06-26T10:02:10.582Z,1021.7
2019-06-26T10:03:11.437Z,1021.7
2019-06-26T10:04:10.489Z,1021.7
2019-06-26T10:05:10.470Z,1021.7
2019-06-26T10:06:10.430Z,1021.5
2019-06-26T10:07:10.475Z,1021.6
2019-06-26T10:08:10.887Z,1021.5
2019-06-26T10:09:10.535Z,1021.5
2019-06-26T10:10:10.581Z,1021.5
2019-06-26T10:11:10.560Z,1021.5
2019-06-26T10:12:10.548Z,1021.4
2019-06-26T10:13:10.614Z,1021.4
2019-06-26T10:14:10.609Z,1021.5
2019-06-26T10:15:10.689Z,1021.6
2019-06-26T10:16:10.675Z,1021.4
2019-06-26T10:17:10.706Z,1021.5
2019-06-26T10:18:10.701Z,1021.5
2019-06-26T10:19:11.104Z,1021.5
2019-06-26T10:20:10.832Z,1021.5
2019-06-26T10:21:10.760Z,1021.4
2019-06-26T10:22:10.839Z,1021.3
2019-06-26T10:23:10.802Z,1021.3
2019-06-26T10:24:10.814Z,1021.3
2019-06-26T10:25:11.526Z,1021.3
2019-06-26T10:26:10.840Z,1021.4
2019-06-26T10:27:10.861Z,1021.3
2019-06-26T10:28:10.879Z,1021.3
2019-06-26T10:29:10.894Z,1021.3
2019-06-26T10:30:10.889Z,1021.3
2019-06-26T10:31:10.895Z,1021.2
2019-06-26T10:32:10.964Z,1021.4
2019-06-26T10:33:10.928Z,1021.3
2019-06-26T10:34:10.987Z,1021.3
2019-06-26T10:35:10.998Z,1021.3
2019-06-26T10:36:11.000Z,1021.2
2019-06-26T10:37:10.980Z,1021.3
2019-06-26T10:38:11.246Z,1021.2
2019-06-26T10:39:10.997Z,1021.2
2019-06-26T10:40:11.025Z,1021.2
2019-06-26T10:41:10.990Z,1021.2
2019-06-26T10:42:11.002Z,1021.2
2019-06-26T10:43:11.013Z,1021.2
2019-06-26T10:44:10.976Z,1021.2
2019-06-26T10:45:11.007Z,1021.2
2019-06-26T10:46:11.004Z,1021.3
2019-06-26T10:47:11.012Z,1021.3
2019-06-26T10:48:11.027Z,1021.2
2019-06-26T10:49:25.721Z,1021.2
2019-06-26T10:50:11.113Z,1021.2
2019-06-26T10:51:11.195Z,1021.2
2019-06-26T10:52:11.238Z,1021.2
2019-06-26T10:53:11.227Z,1021.1
2019-06-26T10:54:11.369Z,1021.2
2019-06-26T10:55:11.391Z,1021.1
2019-06-26T10:56:11.347Z,1021.1
2019-06-26T10:57:11.429Z,1021.1
2019-06-26T10:58:11.418Z,1021.1
2019-06-26T10:59:11.490Z,1021
2019-06-26T11:00:11.589Z,1021
2019-06-26T11:01:11.677Z,1021.1
2019-06-26T11:02:11.722Z,1021.2
2019-06-26T11:03:11.718Z,1021
2019-06-26T11:04:11.738Z,1021.1
2019-06-26T11:05:11.867Z,1021
2019-06-26T11:06:11.869Z,1021
2019-06-26T11:07:11.920Z,1021
2019-06-26T11:08:11.965Z,1021
2019-06-26T11:09:12.030Z,1021
2019-06-26T11:10:12.107Z,1020.9
2019-06-26T11:11:12.079Z,1020.9
2019-06-26T11:12:12.129Z,1020.9
2019-06-26T11:13:12.131Z,1020.9
2019-06-26T11:14:12.170Z,1020.9
2019-06-26T11:15:12.223Z,1021
2019-06-26T11:16:12.214Z,1020.9
2019-06-26T11:17:12.304Z,1020.9
2019-06-26T11:18:14.877Z,1020.8
2019-06-26T11:19:12.295Z,1020.9
2019-06-26T11:20:12.376Z,1020.9
2019-06-26T11:21:12.341Z,1020.8
2019-06-26T11:22:12.452Z,1020.8
2019-06-26T11:23:14.698Z,1020.8
2019-06-26T11:24:12.530Z,1020.8
2019-06-26T11:25:12.562Z,1020.8
2019-06-26T11:26:12.573Z,1020.7
2019-06-26T11:27:12.639Z,1020.8
2019-06-26T11:28:12.659Z,1020.7
2019-06-26T11:29:12.723Z,1020.7
2019-06-26T11:30:12.738Z,1020.8
2019-06-26T11:31:12.799Z,1020.8
2019-06-26T11:32:12.841Z,1020.8
2019-06-26T11:33:12.897Z,1020.7
2019-06-26T11:34:12.906Z,1020.7
2019-06-26T11:35:12.996Z,1020.7
2019-06-26T11:36:13.005Z,1020.8
2019-06-26T11:37:13.034Z,1020.7
2019-06-26T11:38:13.056Z,1020.7
2019-06-26T11:39:13.173Z,1020.7
2019-06-26T11:40:13.204Z,1020.7
2019-06-26T11:41:13.278Z,1020.6
2019-06-26T11:42:13.275Z,1020.6
2019-06-26T11:43:13.286Z,1020.6
2019-06-26T11:44:13.392Z,1020.7
2019-06-26T11:45:13.428Z,1020.6
2019-06-26T11:46:13.440Z,1020.6
2019-06-26T11:47:13.575Z,1020.6
2019-06-26T11:48:13.571Z,1020.6
2019-06-26T11:49:13.510Z,1020.5
2019-06-26T11:50:13.658Z,1020.6
2019-06-26T11:51:13.541Z,1020.7
2019-06-26T11:52:13.571Z,1020.5
2019-06-26T11:53:13.562Z,1020.6
2019-06-26T11:54:13.608Z,1020.5
2019-06-26T11:55:13.686Z,1020.6
2019-06-26T11:56:13.754Z,1020.5
2019-06-26T11:57:13.652Z,1020.5
2019-06-26T11:58:13.703Z,1020.5
2019-06-26T11:59:13.720Z,1020.4
2019-06-26T12:00:13.761Z,1020.5
2019-06-26T12:01:13.777Z,1020.6
2019-06-26T12:02:13.780Z,1020.5
2019-06-26T12:03:13.840Z,1020.4
2019-06-26T12:04:13.855Z,1020.5
2019-06-26T12:05:13.897Z,1020.5
2019-06-26T12:06:18.795Z,1020.5
2019-06-26T12:07:13.911Z,1020.4
2019-06-26T12:08:13.981Z,1020.5
2019-06-26T12:09:13.986Z,1020.5
2019-06-26T12:10:14.160Z,1020.4
2019-06-26T12:11:13.980Z,1020.4
2019-06-26T12:12:14.032Z,1020.4
2019-06-26T12:13:14.077Z,1020.4
2019-06-26T12:14:14.097Z,1020.4
2019-06-26T12:15:14.075Z,1020.3
2019-06-26T12:16:14.080Z,1020.4
2019-06-26T12:17:14.123Z,1020.5
2019-06-26T12:18:14.130Z,1020.4
2019-06-26T12:19:14.326Z,1020.4
2019-06-26T12:20:18.881Z,1020.4
2019-06-26T12:21:14.184Z,1020.4
2019-06-26T12:22:14.219Z,1020.4
2019-06-26T12:23:14.242Z,1020.4
2019-06-26T12:24:14.315Z,1020.4
2019-06-26T12:25:14.243Z,1020.4
2019-06-26T12:26:14.251Z,1020.4
2019-06-26T12:27:14.275Z,1020.3
2019-06-26T12:28:14.370Z,1020.3
2019-06-26T12:29:14.317Z,1020.4
2019-06-26T12:30:14.315Z,1020.4
2019-06-26T12:31:14.557Z,1020.3
2019-06-26T12:32:14.459Z,1020.3
2019-06-26T12:33:14.386Z,1020.3
2019-06-26T12:34:14.329Z,1020.2
2019-06-26T12:35:14.408Z,1020.3
2019-06-26T12:36:14.551Z,1020.3
2019-06-26T12:37:14.418Z,1020.1